<?xml version="1.0" encoding="UTF-8"?>
<gpx version="1.1" creator="Endomondo.com" xsi:schemaLocation="http://www.topografix.com/GPX/1/1 http://www.topografix.com/GPX/1/1/gpx.xsd http://www.garmin.com/xmlschemas/GpxExtensions/v3 http://www.garmin.com/xmlschemas/GpxExtensionsv3.xsd http://www.garmin.com/xmlschemas/TrackPointExtension/v1 http://www.garmin.com/xmlschemas/TrackPointExtensionv1.xsd" xmlns="http://www.topografix.com/GPX/1/1" xmlns:gpxtpx="http://www.garmin.com/xmlschemas/TrackPointExtension/v1" xmlns:gpxx="http://www.garmin.com/xmlschemas/GpxExtensions/v3" xmlns:xsi="http://www.w3.org/2001/XMLSchema-instance">
  <metadata>
    <author>
      <name>jose manuel</name>
      <email id="jmanuelguerrero" domain="gmail.com"/>
    </author>
    <link href="http://www.endomondo.com">
      <text>Endomondo</text>
    </link>
    <time>2016-08-24T09:40:16Z</time>
  </metadata>
  <trk>
    <src>http://www.endomondo.com/</src>
    <link href="https://www.endomondo.com/workouts/664099465/159315">
      <text>endomondo</text>
    </link>
    <type>OTHER</type>
    <trkseg>
      <trkpt lat="42.8743574" lon="-5.3739388">
        <time>2016-01-29T16:03:57Z</time>
      </trkpt>
      <trkpt lat="42.8743574" lon="-5.3739388">
        <ele>1526.6</ele>
        <time>2016-01-29T16:04:01Z</time>
      </trkpt>
      <trkpt lat="42.8743175" lon="-5.3738934">
        <ele>1572.0</ele>
        <time>2016-01-29T16:05:39Z</time>
      </trkpt>
      <trkpt lat="42.8742246" lon="-5.3739145">
        <ele>1571.5</ele>
        <time>2016-01-29T16:08:08Z</time>
      </trkpt>
      <trkpt lat="42.8742698" lon="-5.3739154">
        <ele>1569.3</ele>
        <time>2016-01-29T16:10:29Z</time>
      </trkpt>
      <trkpt lat="42.8742238" lon="-5.3739297">
        <ele>1570.6</ele>
        <time>2016-01-29T16:11:27Z</time>
      </trkpt>
      <trkpt lat="42.8741737" lon="-5.3739959">
        <ele>1568.9</ele>
        <time>2016-01-29T16:13:43Z</time>
      </trkpt>
      <trkpt lat="42.8742265" lon="-5.3739825">
        <ele>1569.5</ele>
        <time>2016-01-29T16:14:24Z</time>
      </trkpt>
      <trkpt lat="42.8742987" lon="-5.3739632">
        <ele>1569.7</ele>
        <time>2016-01-29T16:14:29Z</time>
      </trkpt>
      <trkpt lat="42.8742147" lon="-5.3740362">
        <ele>1573.0</ele>
        <time>2016-01-29T16:16:11Z</time>
      </trkpt>
      <trkpt lat="42.8741715" lon="-5.3740596">
        <ele>1573.0</ele>
        <time>2016-01-29T16:16:18Z</time>
      </trkpt>
      <trkpt lat="42.8740806" lon="-5.374069">
        <ele>1573.0</ele>
        <time>2016-01-29T16:16:22Z</time>
      </trkpt>
      <trkpt lat="42.8739901" lon="-5.3740695">
        <ele>1573.0</ele>
        <time>2016-01-29T16:16:24Z</time>
      </trkpt>
      <trkpt lat="42.8738578" lon="-5.3741026">
        <ele>1573.0</ele>
        <time>2016-01-29T16:16:26Z</time>
      </trkpt>
      <trkpt lat="42.8736933" lon="-5.374154">
        <ele>1573.0</ele>
        <time>2016-01-29T16:16:28Z</time>
      </trkpt>
      <trkpt lat="42.8733915" lon="-5.3742003">
        <ele>1573.0</ele>
        <time>2016-01-29T16:16:33Z</time>
      </trkpt>
      <trkpt lat="42.8731772" lon="-5.3741813">
        <ele>1573.0</ele>
        <time>2016-01-29T16:16:37Z</time>
      </trkpt>
      <trkpt lat="42.873045" lon="-5.3742142">
        <ele>1573.0</ele>
        <time>2016-01-29T16:16:39Z</time>
      </trkpt>
      <trkpt lat="42.8729095" lon="-5.37423">
        <ele>1572.9</ele>
        <time>2016-01-29T16:16:41Z</time>
      </trkpt>
      <trkpt lat="42.8728392" lon="-5.3742353">
        <ele>1572.9</ele>
        <time>2016-01-29T16:16:42Z</time>
      </trkpt>
      <trkpt lat="42.8727678" lon="-5.3742328">
        <ele>1572.9</ele>
        <time>2016-01-29T16:16:43Z</time>
      </trkpt>
      <trkpt lat="42.8726954" lon="-5.3742244">
        <ele>1572.9</ele>
        <time>2016-01-29T16:16:44Z</time>
      </trkpt>
      <trkpt lat="42.8726181" lon="-5.3741936">
        <ele>1572.9</ele>
        <time>2016-01-29T16:16:45Z</time>
      </trkpt>
      <trkpt lat="42.8723376" lon="-5.3740249">
        <ele>1572.4</ele>
        <time>2016-01-29T16:16:49Z</time>
      </trkpt>
      <trkpt lat="42.8722062" lon="-5.373946">
        <ele>1571.9</ele>
        <time>2016-01-29T16:16:51Z</time>
      </trkpt>
      <trkpt lat="42.8720646" lon="-5.373873">
        <ele>1570.4</ele>
        <time>2016-01-29T16:16:53Z</time>
      </trkpt>
      <trkpt lat="42.871903" lon="-5.3738414">
        <ele>1568.6</ele>
        <time>2016-01-29T16:16:55Z</time>
      </trkpt>
      <trkpt lat="42.871746" lon="-5.3737945">
        <ele>1562.0</ele>
        <time>2016-01-29T16:16:57Z</time>
      </trkpt>
      <trkpt lat="42.8716777" lon="-5.3737532">
        <ele>1562.0</ele>
        <time>2016-01-29T16:16:58Z</time>
      </trkpt>
      <trkpt lat="42.8716282" lon="-5.3737084">
        <ele>1562.0</ele>
        <time>2016-01-29T16:16:59Z</time>
      </trkpt>
      <trkpt lat="42.8715787" lon="-5.3736519">
        <ele>1562.0</ele>
        <time>2016-01-29T16:17:00Z</time>
      </trkpt>
      <trkpt lat="42.8715311" lon="-5.3735976">
        <ele>1562.0</ele>
        <time>2016-01-29T16:17:01Z</time>
      </trkpt>
      <trkpt lat="42.8714063" lon="-5.3735071">
        <ele>1560.9</ele>
        <time>2016-01-29T16:17:03Z</time>
      </trkpt>
      <trkpt lat="42.8712573" lon="-5.3734168">
        <ele>1560.2</ele>
        <time>2016-01-29T16:17:05Z</time>
      </trkpt>
      <trkpt lat="42.8710952" lon="-5.373246">
        <ele>1557.2</ele>
        <time>2016-01-29T16:17:08Z</time>
      </trkpt>
      <trkpt lat="42.8708962" lon="-5.3731848">
        <ele>1552.7</ele>
        <time>2016-01-29T16:17:11Z</time>
      </trkpt>
      <trkpt lat="42.8707625" lon="-5.3732042">
        <ele>1550.1</ele>
        <time>2016-01-29T16:17:13Z</time>
      </trkpt>
      <trkpt lat="42.870627" lon="-5.37321">
        <ele>1543.2</ele>
        <time>2016-01-29T16:17:15Z</time>
      </trkpt>
      <trkpt lat="42.8705518" lon="-5.3731948">
        <ele>1543.2</ele>
        <time>2016-01-29T16:17:16Z</time>
      </trkpt>
      <trkpt lat="42.8704711" lon="-5.3731629">
        <ele>1543.2</ele>
        <time>2016-01-29T16:17:17Z</time>
      </trkpt>
      <trkpt lat="42.8703999" lon="-5.3731371">
        <ele>1543.2</ele>
        <time>2016-01-29T16:17:18Z</time>
      </trkpt>
      <trkpt lat="42.8703325" lon="-5.373122">
        <ele>1543.2</ele>
        <time>2016-01-29T16:17:19Z</time>
      </trkpt>
      <trkpt lat="42.8702001" lon="-5.3731324">
        <ele>1538.5</ele>
        <time>2016-01-29T16:17:21Z</time>
      </trkpt>
      <trkpt lat="42.8700568" lon="-5.3731228">
        <ele>1537.1</ele>
        <time>2016-01-29T16:17:23Z</time>
      </trkpt>
      <trkpt lat="42.869914" lon="-5.3731279">
        <ele>1535.3</ele>
        <time>2016-01-29T16:17:25Z</time>
      </trkpt>
      <trkpt lat="42.8697575" lon="-5.3731236">
        <ele>1535.3</ele>
        <time>2016-01-29T16:17:27Z</time>
      </trkpt>
      <trkpt lat="42.8695279" lon="-5.373091">
        <ele>1533.6</ele>
        <time>2016-01-29T16:17:30Z</time>
      </trkpt>
      <trkpt lat="42.8693665" lon="-5.3730874">
        <ele>1531.7</ele>
        <time>2016-01-29T16:17:32Z</time>
      </trkpt>
      <trkpt lat="42.8691517" lon="-5.3730905">
        <ele>1519.3</ele>
        <time>2016-01-29T16:17:35Z</time>
      </trkpt>
      <trkpt lat="42.86908" lon="-5.3730782">
        <ele>1519.3</ele>
        <time>2016-01-29T16:17:36Z</time>
      </trkpt>
      <trkpt lat="42.8689895" lon="-5.3730402">
        <ele>1519.3</ele>
        <time>2016-01-29T16:17:37Z</time>
      </trkpt>
      <trkpt lat="42.8689087" lon="-5.3729826">
        <ele>1519.3</ele>
        <time>2016-01-29T16:17:38Z</time>
      </trkpt>
      <trkpt lat="42.8687583" lon="-5.3728822">
        <ele>1514.9</ele>
        <time>2016-01-29T16:17:40Z</time>
      </trkpt>
      <trkpt lat="42.8685897" lon="-5.3727532">
        <ele>1505.9</ele>
        <time>2016-01-29T16:17:43Z</time>
      </trkpt>
      <trkpt lat="42.8684461" lon="-5.372696">
        <ele>1500.8</ele>
        <time>2016-01-29T16:17:45Z</time>
      </trkpt>
      <trkpt lat="42.8682237" lon="-5.372557">
        <ele>1490.7</ele>
        <time>2016-01-29T16:17:49Z</time>
      </trkpt>
      <trkpt lat="42.868085" lon="-5.3725357">
        <ele>1485.6</ele>
        <time>2016-01-29T16:17:51Z</time>
      </trkpt>
      <trkpt lat="42.8679383" lon="-5.3724982">
        <ele>1475.5</ele>
        <time>2016-01-29T16:17:53Z</time>
      </trkpt>
      <trkpt lat="42.8678639" lon="-5.3724678">
        <ele>1475.5</ele>
        <time>2016-01-29T16:17:54Z</time>
      </trkpt>
      <trkpt lat="42.867782" lon="-5.3724291">
        <ele>1475.5</ele>
        <time>2016-01-29T16:17:55Z</time>
      </trkpt>
      <trkpt lat="42.8676329" lon="-5.3723614">
        <ele>1475.5</ele>
        <time>2016-01-29T16:17:57Z</time>
      </trkpt>
      <trkpt lat="42.8674891" lon="-5.3722585">
        <ele>1471.3</ele>
        <time>2016-01-29T16:17:59Z</time>
      </trkpt>
      <trkpt lat="42.8673599" lon="-5.3721742">
        <ele>1466.0</ele>
        <time>2016-01-29T16:18:01Z</time>
      </trkpt>
      <trkpt lat="42.8672513" lon="-5.3721018">
        <ele>1461.7</ele>
        <time>2016-01-29T16:18:03Z</time>
      </trkpt>
      <trkpt lat="42.8671017" lon="-5.3720689">
        <ele>1458.1</ele>
        <time>2016-01-29T16:18:05Z</time>
      </trkpt>
      <trkpt lat="42.8669506" lon="-5.3720279">
        <ele>1451.0</ele>
        <time>2016-01-29T16:18:07Z</time>
      </trkpt>
      <trkpt lat="42.8668842" lon="-5.371992">
        <ele>1451.0</ele>
        <time>2016-01-29T16:18:08Z</time>
      </trkpt>
      <trkpt lat="42.8668175" lon="-5.3719495">
        <ele>1451.0</ele>
        <time>2016-01-29T16:18:09Z</time>
      </trkpt>
      <trkpt lat="42.8667459" lon="-5.3719117">
        <ele>1451.0</ele>
        <time>2016-01-29T16:18:10Z</time>
      </trkpt>
      <trkpt lat="42.8666724" lon="-5.3718679">
        <ele>1451.0</ele>
        <time>2016-01-29T16:18:11Z</time>
      </trkpt>
      <trkpt lat="42.8665243" lon="-5.3717727">
        <ele>1449.5</ele>
        <time>2016-01-29T16:18:13Z</time>
      </trkpt>
      <trkpt lat="42.8664058" lon="-5.3716602">
        <ele>1447.6</ele>
        <time>2016-01-29T16:18:15Z</time>
      </trkpt>
      <trkpt lat="42.866283" lon="-5.3715593">
        <ele>1446.0</ele>
        <time>2016-01-29T16:18:17Z</time>
      </trkpt>
      <trkpt lat="42.8661188" lon="-5.3714352">
        <ele>1444.4</ele>
        <time>2016-01-29T16:18:20Z</time>
      </trkpt>
      <trkpt lat="42.86596" lon="-5.3713387">
        <ele>1442.9</ele>
        <time>2016-01-29T16:18:22Z</time>
      </trkpt>
      <trkpt lat="42.8656305" lon="-5.3711106">
        <ele>1437.6</ele>
        <time>2016-01-29T16:18:27Z</time>
      </trkpt>
      <trkpt lat="42.8655224" lon="-5.3710373">
        <ele>1429.9</ele>
        <time>2016-01-29T16:18:29Z</time>
      </trkpt>
      <trkpt lat="42.865479" lon="-5.3709901">
        <ele>1429.9</ele>
        <time>2016-01-29T16:18:30Z</time>
      </trkpt>
      <trkpt lat="42.8654355" lon="-5.370937">
        <ele>1429.9</ele>
        <time>2016-01-29T16:18:31Z</time>
      </trkpt>
      <trkpt lat="42.8653939" lon="-5.370876">
        <ele>1429.9</ele>
        <time>2016-01-29T16:18:32Z</time>
      </trkpt>
      <trkpt lat="42.8653539" lon="-5.3708252">
        <ele>1429.9</ele>
        <time>2016-01-29T16:18:33Z</time>
      </trkpt>
      <trkpt lat="42.8652385" lon="-5.3707123">
        <ele>1427.2</ele>
        <time>2016-01-29T16:18:35Z</time>
      </trkpt>
      <trkpt lat="42.8650929" lon="-5.3705847">
        <ele>1424.3</ele>
        <time>2016-01-29T16:18:37Z</time>
      </trkpt>
      <trkpt lat="42.8649834" lon="-5.3704611">
        <ele>1422.4</ele>
        <time>2016-01-29T16:18:39Z</time>
      </trkpt>
      <trkpt lat="42.8648359" lon="-5.3702759">
        <ele>1418.0</ele>
        <time>2016-01-29T16:18:42Z</time>
      </trkpt>
      <trkpt lat="42.8647315" lon="-5.3701476">
        <ele>1415.5</ele>
        <time>2016-01-29T16:18:44Z</time>
      </trkpt>
      <trkpt lat="42.8646191" lon="-5.3700024">
        <ele>1414.0</ele>
        <time>2016-01-29T16:18:46Z</time>
      </trkpt>
      <trkpt lat="42.8645001" lon="-5.3698784">
        <ele>1413.2</ele>
        <time>2016-01-29T16:18:48Z</time>
      </trkpt>
      <trkpt lat="42.8643852" lon="-5.3697635">
        <ele>1412.4</ele>
        <time>2016-01-29T16:18:50Z</time>
      </trkpt>
      <trkpt lat="42.8642705" lon="-5.3696532">
        <ele>1408.7</ele>
        <time>2016-01-29T16:18:52Z</time>
      </trkpt>
      <trkpt lat="42.8641481" lon="-5.3695498">
        <ele>1402.1</ele>
        <time>2016-01-29T16:18:54Z</time>
      </trkpt>
      <trkpt lat="42.8640181" lon="-5.3694281">
        <ele>1397.8</ele>
        <time>2016-01-29T16:18:56Z</time>
      </trkpt>
      <trkpt lat="42.8638941" lon="-5.3693042">
        <ele>1393.2</ele>
        <time>2016-01-29T16:18:58Z</time>
      </trkpt>
      <trkpt lat="42.8637342" lon="-5.369125">
        <ele>1387.1</ele>
        <time>2016-01-29T16:19:01Z</time>
      </trkpt>
      <trkpt lat="42.8636256" lon="-5.3689829">
        <ele>1383.7</ele>
        <time>2016-01-29T16:19:03Z</time>
      </trkpt>
      <trkpt lat="42.8635167" lon="-5.3688434">
        <ele>1379.9</ele>
        <time>2016-01-29T16:19:05Z</time>
      </trkpt>
      <trkpt lat="42.8634327" lon="-5.3686757">
        <ele>1376.7</ele>
        <time>2016-01-29T16:19:07Z</time>
      </trkpt>
      <trkpt lat="42.8633787" lon="-5.3685048">
        <ele>1375.4</ele>
        <time>2016-01-29T16:19:09Z</time>
      </trkpt>
      <trkpt lat="42.8633171" lon="-5.3683063">
        <ele>1374.0</ele>
        <time>2016-01-29T16:19:11Z</time>
      </trkpt>
      <trkpt lat="42.8632466" lon="-5.3680771">
        <ele>1373.1</ele>
        <time>2016-01-29T16:19:13Z</time>
      </trkpt>
      <trkpt lat="42.8631472" lon="-5.3679326">
        <ele>1372.6</ele>
        <time>2016-01-29T16:19:15Z</time>
      </trkpt>
      <trkpt lat="42.8630133" lon="-5.3678292">
        <ele>1371.9</ele>
        <time>2016-01-29T16:19:17Z</time>
      </trkpt>
      <trkpt lat="42.8628819" lon="-5.3677106">
        <ele>1371.3</ele>
        <time>2016-01-29T16:19:19Z</time>
      </trkpt>
      <trkpt lat="42.8627406" lon="-5.3675859">
        <ele>1367.8</ele>
        <time>2016-01-29T16:19:22Z</time>
      </trkpt>
      <trkpt lat="42.8625064" lon="-5.3674415">
        <ele>1362.5</ele>
        <time>2016-01-29T16:19:25Z</time>
      </trkpt>
      <trkpt lat="42.8621499" lon="-5.3671851">
        <ele>1353.2</ele>
        <time>2016-01-29T16:19:30Z</time>
      </trkpt>
      <trkpt lat="42.8620098" lon="-5.3671046">
        <ele>1344.4</ele>
        <time>2016-01-29T16:19:32Z</time>
      </trkpt>
      <trkpt lat="42.861938" lon="-5.367052">
        <ele>1344.4</ele>
        <time>2016-01-29T16:19:33Z</time>
      </trkpt>
      <trkpt lat="42.8616989" lon="-5.366886">
        <ele>1344.4</ele>
        <time>2016-01-29T16:19:36Z</time>
      </trkpt>
      <trkpt lat="42.861571" lon="-5.3668031">
        <ele>1341.3</ele>
        <time>2016-01-29T16:19:38Z</time>
      </trkpt>
      <trkpt lat="42.8614221" lon="-5.3667056">
        <ele>1324.8</ele>
        <time>2016-01-29T16:19:40Z</time>
      </trkpt>
      <trkpt lat="42.8612886" lon="-5.3666071">
        <ele>1322.6</ele>
        <time>2016-01-29T16:19:42Z</time>
      </trkpt>
      <trkpt lat="42.86115" lon="-5.3665003">
        <ele>1320.8</ele>
        <time>2016-01-29T16:19:44Z</time>
      </trkpt>
      <trkpt lat="42.8609239" lon="-5.3663781">
        <ele>1318.2</ele>
        <time>2016-01-29T16:19:47Z</time>
      </trkpt>
      <trkpt lat="42.8606225" lon="-5.3662274">
        <ele>1310.0</ele>
        <time>2016-01-29T16:19:51Z</time>
      </trkpt>
      <trkpt lat="42.8605316" lon="-5.3662114">
        <ele>1309.0</ele>
        <time>2016-01-29T16:19:52Z</time>
      </trkpt>
      <trkpt lat="42.8603752" lon="-5.3662336">
        <ele>1295.3</ele>
        <time>2016-01-29T16:19:54Z</time>
      </trkpt>
      <trkpt lat="42.8602847" lon="-5.3662372">
        <ele>1295.3</ele>
        <time>2016-01-29T16:19:55Z</time>
      </trkpt>
      <trkpt lat="42.8600002" lon="-5.3662378">
        <ele>1295.3</ele>
        <time>2016-01-29T16:19:58Z</time>
      </trkpt>
      <trkpt lat="42.8597538" lon="-5.3662454">
        <ele>1288.8</ele>
        <time>2016-01-29T16:20:01Z</time>
      </trkpt>
      <trkpt lat="42.8595958" lon="-5.3662334">
        <ele>1276.6</ele>
        <time>2016-01-29T16:20:03Z</time>
      </trkpt>
      <trkpt lat="42.8594295" lon="-5.3662138">
        <ele>1274.9</ele>
        <time>2016-01-29T16:20:05Z</time>
      </trkpt>
      <trkpt lat="42.8592693" lon="-5.3661854">
        <ele>1273.5</ele>
        <time>2016-01-29T16:20:07Z</time>
      </trkpt>
      <trkpt lat="42.8591062" lon="-5.3661801">
        <ele>1267.8</ele>
        <time>2016-01-29T16:20:09Z</time>
      </trkpt>
      <trkpt lat="42.8587622" lon="-5.3661545">
        <ele>1267.8</ele>
        <time>2016-01-29T16:20:13Z</time>
      </trkpt>
      <trkpt lat="42.8584076" lon="-5.3660701">
        <ele>1262.4</ele>
        <time>2016-01-29T16:20:17Z</time>
      </trkpt>
      <trkpt lat="42.8583115" lon="-5.3660383">
        <ele>1261.5</ele>
        <time>2016-01-29T16:20:18Z</time>
      </trkpt>
      <trkpt lat="42.8582255" lon="-5.3659883">
        <ele>1260.5</ele>
        <time>2016-01-29T16:20:19Z</time>
      </trkpt>
      <trkpt lat="42.8581354" lon="-5.3659514">
        <ele>1257.1</ele>
        <time>2016-01-29T16:20:20Z</time>
      </trkpt>
      <trkpt lat="42.8580361" lon="-5.3659139">
        <ele>1257.1</ele>
        <time>2016-01-29T16:20:21Z</time>
      </trkpt>
      <trkpt lat="42.8579359" lon="-5.3659066">
        <ele>1253.9</ele>
        <time>2016-01-29T16:20:22Z</time>
      </trkpt>
      <trkpt lat="42.8578346" lon="-5.3659017">
        <ele>1251.5</ele>
        <time>2016-01-29T16:20:23Z</time>
      </trkpt>
      <trkpt lat="42.8577329" lon="-5.3658914">
        <ele>1250.2</ele>
        <time>2016-01-29T16:20:24Z</time>
      </trkpt>
      <trkpt lat="42.8576367" lon="-5.3658485">
        <ele>1249.1</ele>
        <time>2016-01-29T16:20:25Z</time>
      </trkpt>
      <trkpt lat="42.8574823" lon="-5.3656948">
        <ele>1245.0</ele>
        <time>2016-01-29T16:20:27Z</time>
      </trkpt>
      <trkpt lat="42.8573387" lon="-5.3655275">
        <ele>1242.1</ele>
        <time>2016-01-29T16:20:29Z</time>
      </trkpt>
      <trkpt lat="42.8571899" lon="-5.3653905">
        <ele>1240.9</ele>
        <time>2016-01-29T16:20:31Z</time>
      </trkpt>
      <trkpt lat="42.8570725" lon="-5.3652277">
        <ele>1239.2</ele>
        <time>2016-01-29T16:20:33Z</time>
      </trkpt>
      <trkpt lat="42.8570047" lon="-5.365016">
        <ele>1236.6</ele>
        <time>2016-01-29T16:20:35Z</time>
      </trkpt>
      <trkpt lat="42.8570115" lon="-5.3647333">
        <ele>1234.1</ele>
        <time>2016-01-29T16:20:38Z</time>
      </trkpt>
      <trkpt lat="42.857024" lon="-5.3645242">
        <ele>1231.6</ele>
        <time>2016-01-29T16:20:40Z</time>
      </trkpt>
      <trkpt lat="42.8570721" lon="-5.364335">
        <ele>1229.7</ele>
        <time>2016-01-29T16:20:42Z</time>
      </trkpt>
      <trkpt lat="42.8571634" lon="-5.3640947">
        <ele>1226.1</ele>
        <time>2016-01-29T16:20:45Z</time>
      </trkpt>
      <trkpt lat="42.8572252" lon="-5.3638539">
        <ele>1220.5</ele>
        <time>2016-01-29T16:20:48Z</time>
      </trkpt>
      <trkpt lat="42.857303" lon="-5.3636932">
        <ele>1218.7</ele>
        <time>2016-01-29T16:20:50Z</time>
      </trkpt>
      <trkpt lat="42.8573929" lon="-5.3635449">
        <ele>1215.7</ele>
        <time>2016-01-29T16:20:52Z</time>
      </trkpt>
      <trkpt lat="42.8574859" lon="-5.3633771">
        <ele>1212.9</ele>
        <time>2016-01-29T16:20:54Z</time>
      </trkpt>
      <trkpt lat="42.857619" lon="-5.3632095">
        <ele>1208.5</ele>
        <time>2016-01-29T16:20:57Z</time>
      </trkpt>
      <trkpt lat="42.8577413" lon="-5.3630632">
        <ele>1204.7</ele>
        <time>2016-01-29T16:20:59Z</time>
      </trkpt>
      <trkpt lat="42.8578615" lon="-5.3628949">
        <ele>1198.6</ele>
        <time>2016-01-29T16:21:02Z</time>
      </trkpt>
      <trkpt lat="42.8579851" lon="-5.3627321">
        <ele>1191.3</ele>
        <time>2016-01-29T16:21:05Z</time>
      </trkpt>
      <trkpt lat="42.8581182" lon="-5.3625761">
        <ele>1187.0</ele>
        <time>2016-01-29T16:21:07Z</time>
      </trkpt>
      <trkpt lat="42.8582511" lon="-5.3624562">
        <ele>1184.7</ele>
        <time>2016-01-29T16:21:09Z</time>
      </trkpt>
      <trkpt lat="42.8583597" lon="-5.3623239">
        <ele>1181.4</ele>
        <time>2016-01-29T16:21:11Z</time>
      </trkpt>
      <trkpt lat="42.8584734" lon="-5.362148">
        <ele>1178.5</ele>
        <time>2016-01-29T16:21:13Z</time>
      </trkpt>
      <trkpt lat="42.8585789" lon="-5.361966">
        <ele>1176.5</ele>
        <time>2016-01-29T16:21:15Z</time>
      </trkpt>
      <trkpt lat="42.8586363" lon="-5.3617926">
        <ele>1174.2</ele>
        <time>2016-01-29T16:21:17Z</time>
      </trkpt>
      <trkpt lat="42.8587436" lon="-5.3615715">
        <ele>1170.5</ele>
        <time>2016-01-29T16:21:20Z</time>
      </trkpt>
      <trkpt lat="42.8588369" lon="-5.3614111">
        <ele>1167.1</ele>
        <time>2016-01-29T16:21:22Z</time>
      </trkpt>
      <trkpt lat="42.8589072" lon="-5.3612481">
        <ele>1164.0</ele>
        <time>2016-01-29T16:21:24Z</time>
      </trkpt>
      <trkpt lat="42.8589674" lon="-5.3610522">
        <ele>1161.1</ele>
        <time>2016-01-29T16:21:27Z</time>
      </trkpt>
      <trkpt lat="42.8590687" lon="-5.360809">
        <ele>1157.5</ele>
        <time>2016-01-29T16:21:30Z</time>
      </trkpt>
      <trkpt lat="42.8591405" lon="-5.3606474">
        <ele>1155.5</ele>
        <time>2016-01-29T16:21:32Z</time>
      </trkpt>
      <trkpt lat="42.8591955" lon="-5.3604197">
        <ele>1151.6</ele>
        <time>2016-01-29T16:21:35Z</time>
      </trkpt>
      <trkpt lat="42.85925" lon="-5.3601953">
        <ele>1140.7</ele>
        <time>2016-01-29T16:21:38Z</time>
      </trkpt>
      <trkpt lat="42.8593461" lon="-5.3599583">
        <ele>1137.5</ele>
        <time>2016-01-29T16:21:41Z</time>
      </trkpt>
      <trkpt lat="42.8594262" lon="-5.3597372">
        <ele>1133.6</ele>
        <time>2016-01-29T16:21:44Z</time>
      </trkpt>
      <trkpt lat="42.8595362" lon="-5.3595267">
        <ele>1132.2</ele>
        <time>2016-01-29T16:21:47Z</time>
      </trkpt>
      <trkpt lat="42.8595911" lon="-5.3593179">
        <ele>1127.9</ele>
        <time>2016-01-29T16:21:50Z</time>
      </trkpt>
      <trkpt lat="42.8595624" lon="-5.359104">
        <ele>1122.8</ele>
        <time>2016-01-29T16:21:53Z</time>
      </trkpt>
      <trkpt lat="42.8593847" lon="-5.3590598">
        <ele>1121.2</ele>
        <time>2016-01-29T16:21:56Z</time>
      </trkpt>
      <trkpt lat="42.8592624" lon="-5.3591449">
        <ele>1120.9</ele>
        <time>2016-01-29T16:21:58Z</time>
      </trkpt>
      <trkpt lat="42.8591346" lon="-5.3593138">
        <ele>1117.2</ele>
        <time>2016-01-29T16:22:01Z</time>
      </trkpt>
      <trkpt lat="42.8589416" lon="-5.3592576">
        <ele>1113.7</ele>
        <time>2016-01-29T16:22:04Z</time>
      </trkpt>
      <trkpt lat="42.8588837" lon="-5.3590708">
        <ele>1110.1</ele>
        <time>2016-01-29T16:22:07Z</time>
      </trkpt>
      <trkpt lat="42.8589099" lon="-5.3588415">
        <ele>1104.7</ele>
        <time>2016-01-29T16:22:11Z</time>
      </trkpt>
      <trkpt lat="42.8588663" lon="-5.3586174">
        <ele>1101.6</ele>
        <time>2016-01-29T16:22:14Z</time>
      </trkpt>
      <trkpt lat="42.8587403" lon="-5.3584649">
        <ele>1099.1</ele>
        <time>2016-01-29T16:22:17Z</time>
      </trkpt>
      <trkpt lat="42.8585825" lon="-5.3583533">
        <ele>1096.5</ele>
        <time>2016-01-29T16:22:20Z</time>
      </trkpt>
      <trkpt lat="42.8584366" lon="-5.3582598">
        <ele>1092.7</ele>
        <time>2016-01-29T16:22:22Z</time>
      </trkpt>
      <trkpt lat="42.8583127" lon="-5.3581192">
        <ele>1091.1</ele>
        <time>2016-01-29T16:22:25Z</time>
      </trkpt>
      <trkpt lat="42.8581838" lon="-5.357976">
        <ele>1087.4</ele>
        <time>2016-01-29T16:22:28Z</time>
      </trkpt>
      <trkpt lat="42.8581027" lon="-5.3578918">
        <ele>1083.1</ele>
        <time>2016-01-29T16:22:33Z</time>
      </trkpt>
      <trkpt lat="42.85808" lon="-5.3577921">
        <ele>1068.2</ele>
        <time>2016-01-29T16:22:41Z</time>
      </trkpt>
      <trkpt lat="42.8580458" lon="-5.3576994">
        <ele>1046.1</ele>
        <time>2016-01-29T16:24:22Z</time>
      </trkpt>
      <trkpt lat="42.8580298" lon="-5.3577579">
        <ele>1044.8</ele>
        <time>2016-01-29T16:24:53Z</time>
      </trkpt>
      <trkpt lat="42.8580298" lon="-5.3577579">
        <time>2016-01-29T16:24:58Z</time>
      </trkpt>
    </trkseg>
    <trkseg>
      <trkpt lat="42.8580298" lon="-5.3577579">
        <time>2016-01-29T16:24:59Z</time>
      </trkpt>
    </trkseg>
  </trk>
</gpx>